Time;durP1;ratioP1;P1;durP2;ratioP2;P2;SDS_P1;SDS_P2;PMS_P1;PMS_P2;Temp;Humidity;BMP_temperature;BMP_pressure;BME280_temperature;BME280_humidity;BME280_pressure;Samples;Min_cycle;Max_cycle;Signal;HPM_P1;HPM_P2
2022/04/11 00:00:19;;;;;;;13.40;8.60;;;;;;;0.64;76.11;96768.49;107775;1268;41038;-73
2022/04/11 00:03:08;;;;;;;11.40;8.30;;;;;;;0.64;76.17;96771.39;107813;1267;37898;-73
2022/04/11 00:05:40;;;;;;;14.90;8.80;;;;;;;0.60;76.04;96771.45;107887;1267;34228;-73
2022/04/11 00:08:11;;;;;;;14.60;8.40;;;;;;;0.55;75.67;96768.59;107872;1267;36529;-73
2022/04/11 00:10:41;;;;;;;13.10;8.50;;;;;;;0.52;76.07;96771.08;107824;1267;38741;-73
2022/04/11 00:13:12;;;;;;;16.10;9.20;;;;;;;0.51;75.81;96770.73;107813;1267;43671;-73
2022/04/11 00:15:43;;;;;;;15.00;8.70;;;;;;;0.50;75.89;96772.27;107721;1268;43306;-73
2022/04/11 00:18:15;;;;;;;13.10;7.80;;;;;;;0.49;76.18;96771.55;107718;1271;30855;-73
2022/04/11 00:20:47;;;;;;;12.70;8.80;;;;;;;0.51;76.15;96774.19;107820;1268;41322;-73
2022/04/11 00:23:18;;;;;;;14.40;9.10;;;;;;;0.50;76.22;96779.98;107809;1267;45093;-73
2022/04/11 00:25:49;;;;;;;13.50;8.30;;;;;;;0.50;76.14;96776.28;107814;1267;37814;-72
2022/04/11 00:28:20;;;;;;;13.20;7.80;;;;;;;0.53;76.44;96771.73;107794;1267;40689;-73
2022/04/11 00:30:50;;;;;;;14.70;7.70;;;;;;;0.51;76.42;96769.90;107831;1268;38797;-72
2022/04/11 00:33:21;;;;;;;12.80;7.70;;;;;;;0.51;76.11;96772.30;107803;1268;65060;-73
2022/04/11 00:35:52;;;;;;;13.90;7.70;;;;;;;0.52;76.14;96769.29;107860;1267;37692;-73
2022/04/11 00:38:23;;;;;;;11.10;7.20;;;;;;;0.48;76.14;96768.11;107786;1268;45185;-73
2022/04/11 00:40:54;;;;;;;11.50;8.60;;;;;;;0.39;75.95;96771.90;107822;1268;42111;-74
2022/04/11 00:43:39;;;;;;;15.20;7.90;;;;;;;0.38;76.42;96776.11;107697;1270;52490;-73
2022/04/11 00:46:10;;;;;;;14.10;7.50;;;;;;;0.37;76.11;96777.45;107802;1267;57961;-73
2022/04/11 00:48:41;;;;;;;11.50;5.90;;;;;;;0.33;76.29;96779.84;107796;1268;41652;-73
2022/04/11 00:51:17;;;;;;;14.50;6.80;;;;;;;0.43;76.42;96781.14;107842;1268;31837;-73
2022/04/11 00:53:50;;;;;;;9.10;4.80;;;;;;;0.56;76.29;96777.73;107748;1268;45976;-73
2022/04/11 00:56:22;;;;;;;10.90;6.40;;;;;;;0.67;76.63;96781.08;107829;1268;52576;-73
2022/04/11 00:58:53;;;;;;;11.80;6.60;;;;;;;0.76;76.56;96778.28;107807;1268;36363;-73
2022/04/11 01:01:24;;;;;;;10.80;6.30;;;;;;;0.79;76.04;96783.39;107740;1267;49211;-74
2022/04/11 01:03:55;;;;;;;9.10;6.30;;;;;;;0.86;75.96;96784.27;107766;1267;47656;-74
2022/04/11 01:06:28;;;;;;;11.60;6.90;;;;;;;0.92;76.07;96786.77;107810;1268;41636;-73
2022/04/11 01:08:59;;;;;;;10.00;6.40;;;;;;;0.99;76.10;96789.40;107764;1268;35076;-73
2022/04/11 01:11:31;;;;;;;12.20;7.10;;;;;;;1.04;76.08;96788.73;107813;1268;49067;-73
2022/04/11 01:14:04;;;;;;;9.00;6.60;;;;;;;1.06;76.14;96790.42;107819;1268;45202;-73
2022/04/11 01:16:35;;;;;;;11.90;6.70;;;;;;;1.09;76.20;96789.75;107652;1268;42757;-73
2022/04/11 01:19:07;;;;;;;10.10;5.90;;;;;;;1.10;76.40;96788.09;107744;1268;47844;-73
2022/04/11 01:21:38;;;;;;;13.70;8.00;;;;;;;1.11;76.12;96788.31;107671;1270;43093;-73
2022/04/11 01:24:09;;;;;;;12.40;7.60;;;;;;;1.09;76.30;96787.98;107750;1268;50246;-73
2022/04/11 01:26:41;;;;;;;12.70;8.10;;;;;;;1.04;76.38;96789.31;107716;1268;34286;-73
2022/04/11 01:29:12;;;;;;;12.30;7.10;;;;;;;1.00;76.37;96789.60;107684;1268;53742;-73
2022/04/11 01:31:43;;;;;;;15.20;7.90;;;;;;;0.98;76.36;96787.79;107813;1268;35946;-73
2022/04/11 01:34:14;;;;;;;13.30;8.00;;;;;;;0.96;76.76;96787.84;107773;1268;39104;-73
2022/04/11 01:36:45;;;;;;;12.00;8.20;;;;;;;0.96;76.57;96784.86;107759;1268;35155;-73
2022/04/11 01:39:17;;;;;;;12.40;6.80;;;;;;;0.98;76.76;96785.89;107760;1268;50865;-73
2022/04/11 01:41:50;;;;;;;14.10;8.90;;;;;;;0.95;76.71;96783.64;107762;1268;70748;-73
2022/04/11 01:44:22;;;;;;;13.70;8.40;;;;;;;0.89;76.69;96787.47;107809;1270;33160;-73
2022/04/11 01:46:53;;;;;;;13.20;8.20;;;;;;;0.83;76.73;96780.80;107891;1268;34848;-73
2022/04/11 01:49:23;;;;;;;11.50;7.20;;;;;;;0.82;76.93;96782.48;107824;1268;58615;-73
2022/04/11 01:51:54;;;;;;;11.10;6.90;;;;;;;0.82;77.12;96787.14;107872;1268;49346;-73
2022/04/11 01:54:26;;;;;;;9.80;5.80;;;;;;;0.84;77.21;96788.66;107924;1268;51527;-73
2022/04/11 01:56:57;;;;;;;10.20;5.10;;;;;;;0.87;77.33;96789.49;107939;1268;50693;-73
2022/04/11 01:59:27;;;;;;;8.50;5.10;;;;;;;0.93;77.14;96793.58;107840;1268;46845;-73
2022/04/11 02:01:58;;;;;;;12.60;6.40;;;;;;;1.01;77.15;96793.80;107902;1268;42660;-73
2022/04/11 02:04:31;;;;;;;8.90;5.20;;;;;;;1.06;76.91;96793.07;107784;1268;42154;-73
2022/04/11 02:07:02;;;;;;;7.90;5.00;;;;;;;1.11;77.01;96797.92;107811;1267;34274;-73
2022/04/11 02:09:33;;;;;;;10.00;5.90;;;;;;;1.16;77.08;96799.30;107682;1268;71972;-73
2022/04/11 02:12:05;;;;;;;12.20;6.00;;;;;;;1.22;77.15;96796.89;107859;1267;57355;-73
2022/04/11 02:14:36;;;;;;;5.00;3.60;;;;;;;1.24;76.67;96797.53;107698;1268;77299;-73
2022/04/11 02:17:07;;;;;;;8.20;4.90;;;;;;;1.29;76.64;96796.91;107725;1268;85367;-73
2022/04/11 02:19:38;;;;;;;9.50;5.00;;;;;;;1.31;76.61;96800.63;107702;1270;48841;-73
2022/04/11 02:22:09;;;;;;;11.90;6.40;;;;;;;1.34;76.33;96804.84;107678;1268;53431;-73
2022/04/11 02:24:40;;;;;;;8.10;5.20;;;;;;;1.34;76.48;96807.51;107720;1268;49592;-73
2022/04/11 02:27:11;;;;;;;9.80;5.40;;;;;;;1.33;76.51;96807.95;107719;1268;53154;-73
2022/04/11 02:29:42;;;;;;;7.50;4.50;;;;;;;1.34;76.53;96811.89;107787;1268;94800;-73
2022/04/11 02:32:13;;;;;;;9.90;5.20;;;;;;;1.36;76.52;96811.86;107741;1268;87188;-73
2022/04/11 02:34:43;;;;;;;11.70;6.70;;;;;;;1.38;76.33;96816.41;107751;1268;95003;-73
2022/04/11 02:37:14;;;;;;;10.10;5.60;;;;;;;1.38;76.24;96819.16;107836;1268;42845;-73
2022/04/11 02:39:45;;;;;;;6.30;3.20;;;;;;;1.33;76.43;96817.73;107847;1268;39162;-73
2022/04/11 02:42:24;;;;;;;8.70;5.40;;;;;;;1.27;76.29;96822.55;107689;1268;103158;-73
2022/04/11 02:44:55;;;;;;;10.50;5.70;;;;;;;1.24;76.54;96821.15;107716;1268;54169;-74
2022/04/11 02:47:26;;;;;;;4.10;3.00;;;;;;;1.26;76.73;96821.71;107800;1268;53849;-73
2022/04/11 02:49:57;;;;;;;7.00;4.40;;;;;;;1.26;76.69;96816.39;107780;1267;49076;-73
2022/04/11 02:52:29;;;;;;;10.30;4.70;;;;;;;1.26;76.69;96821.35;107745;1268;51054;-73
2022/04/11 02:55:00;;;;;;;11.30;5.30;;;;;;;1.27;76.55;96818.97;107744;1267;53417;-73
2022/04/11 02:57:31;;;;;;;6.60;3.30;;;;;;;1.27;76.78;96823.36;107853;1268;33458;-73
2022/04/11 03:00:04;;;;;;;10.10;5.60;;;;;;;1.30;76.93;96824.98;107677;1268;59089;-73
2022/04/11 03:02:35;;;;;;;8.00;5.20;;;;;;;1.34;76.94;96821.41;107783;1268;72871;-73
2022/04/11 03:05:07;;;;;;;8.50;3.40;;;;;;;1.38;76.72;96827.68;107827;1268;31906;-73
2022/04/11 03:07:38;;;;;;;7.90;4.00;;;;;;;1.42;76.49;96828.29;107821;1268;34365;-73
2022/04/11 03:10:10;;;;;;;11.10;5.30;;;;;;;1.44;76.31;96825.34;107832;1268;45574;-73
2022/04/11 03:12:41;;;;;;;8.30;4.80;;;;;;;1.47;76.32;96828.24;107752;1268;50279;-73
2022/04/11 03:15:13;;;;;;;9.20;5.40;;;;;;;1.49;76.11;96834.93;107734;1268;53398;-73
2022/04/11 03:17:44;;;;;;;4.50;2.80;;;;;;;1.50;76.31;96834.48;107730;1268;37512;-73
2022/04/11 03:20:15;;;;;;;9.80;4.60;;;;;;;1.51;76.09;96836.27;107787;1268;40828;-73
2022/04/11 03:22:45;;;;;;;8.20;5.00;;;;;;;1.53;75.78;96838.59;107808;1268;36034;-73
2022/04/11 03:25:17;;;;;;;12.40;3.90;;;;;;;1.56;75.57;96839.02;107770;1268;53478;-73
2022/04/11 03:27:48;;;;;;;7.80;4.80;;;;;;;1.59;75.37;96835.86;107782;1268;32354;-73
2022/04/11 03:30:19;;;;;;;6.30;3.90;;;;;;;1.59;75.53;96835.14;107806;1268;33605;-72
2022/04/11 03:32:50;;;;;;;7.90;4.80;;;;;;;1.60;75.35;96833.64;107796;1268;51810;-73
2022/04/11 03:35:22;;;;;;;10.00;5.10;;;;;;;1.61;75.48;96838.60;107835;1268;44029;-73
2022/04/11 03:37:52;;;;;;;6.30;4.40;;;;;;;1.62;75.23;96835.49;107866;1268;44003;-73
2022/04/11 03:40:23;;;;;;;10.00;5.40;;;;;;;1.63;75.51;96838.42;107819;1268;33352;-73
2022/04/11 03:42:54;;;;;;;8.40;3.80;;;;;;;1.63;75.60;96840.59;107748;1268;51175;-74
2022/04/11 03:45:25;;;;;;;7.00;4.60;;;;;;;1.63;75.52;96837.14;107816;1270;34609;-74
2022/04/11 03:47:56;;;;;;;8.00;4.90;;;;;;;1.62;75.39;96849.08;107838;1268;48386;-73
2022/04/11 03:50:27;;;;;;;9.60;4.90;;;;;;;1.63;75.62;96853.38;107798;1268;42339;-73
2022/04/11 03:52:58;;;;;;;6.10;4.00;;;;;;;1.62;75.69;96852.59;107850;1268;31253;-73
2022/04/11 03:55:29;;;;;;;10.20;4.70;;;;;;;1.60;76.19;96846.66;107738;1267;51075;-73
2022/04/11 03:58:00;;;;;;;8.70;4.90;;;;;;;1.57;76.44;96846.69;107724;1268;46938;-73
2022/04/11 04:00:31;;;;;;;9.00;4.10;;;;;;;1.56;77.00;96854.34;107801;1268;40073;-73
2022/04/11 04:03:09;;;;;;;17.30;5.00;;;;;;;1.56;77.18;96860.86;107762;1268;55664;-73
2022/04/11 04:05:43;;;;;;;6.50;4.60;;;;;;;1.55;77.69;96859.36;107739;1268;44368;-73
2022/04/11 04:08:17;;;;;;;13.90;5.00;;;;;;;1.54;77.63;96863.38;107800;1268;44389;-73
2022/04/11 04:10:48;;;;;;;8.90;5.90;;;;;;;1.53;78.29;96865.89;107842;1268;30461;-73
2022/04/11 04:13:19;;;;;;;10.10;5.80;;;;;;;1.52;78.32;96864.48;107706;1268;47884;-73
2022/04/11 04:15:50;;;;;;;10.30;6.50;;;;;;;1.52;78.40;96874.82;107755;1268;42643;-73
2022/04/11 04:18:22;;;;;;;13.50;10.20;;;;;;;1.51;78.73;96875.99;107856;1268;44024;-73
2022/04/11 04:20:52;;;;;;;14.60;8.60;;;;;;;1.50;78.65;96874.71;107935;1268;37543;-73
2022/04/11 04:23:24;;;;;;;13.10;8.30;;;;;;;1.50;78.60;96875.60;107926;1268;59339;-73
2022/04/11 04:25:55;;;;;;;10.80;7.00;;;;;;;1.52;78.39;96874.66;107770;1268;47286;-74
2022/04/11 04:28:26;;;;;;;12.20;7.80;;;;;;;1.54;78.31;96881.36;107739;1268;57004;-74
2022/04/11 04:30:57;;;;;;;10.50;6.80;;;;;;;1.55;78.19;96880.50;107801;1268;52816;-73
2022/04/11 04:33:30;;;;;;;8.00;5.10;;;;;;;1.55;78.40;96880.63;107783;1268;43133;-73
2022/04/11 04:36:01;;;;;;;9.30;6.10;;;;;;;1.55;78.52;96883.48;107789;1268;50294;-73
2022/04/11 04:38:32;;;;;;;7.10;4.10;;;;;;;1.55;78.45;96882.55;107719;1268;50673;-73
2022/04/11 04:41:03;;;;;;;9.20;6.80;;;;;;;1.55;78.47;96885.36;107832;1268;36161;-73
2022/04/11 04:43:33;;;;;;;11.40;8.00;;;;;;;1.55;78.61;96891.80;107675;1268;43708;-73
2022/04/11 04:46:04;;;;;;;11.30;8.50;;;;;;;1.56;78.48;96895.87;107772;1268;52544;-73
2022/04/11 04:48:35;;;;;;;12.60;7.00;;;;;;;1.57;78.56;96895.73;107780;1268;34344;-73
2022/04/11 04:51:08;;;;;;;11.40;8.10;;;;;;;1.56;78.62;96897.71;107644;1268;47148;-73
2022/04/11 04:53:39;;;;;;;10.10;7.70;;;;;;;1.57;78.70;96901.81;107669;1268;51352;-73
2022/04/11 04:56:09;;;;;;;8.80;4.50;;;;;;;1.58;78.64;96897.48;107758;1268;47652;-73
2022/04/11 04:58:41;;;;;;;11.10;8.90;;;;;;;1.58;78.74;96903.73;107667;1268;34902;-73
2022/04/11 05:01:12;;;;;;;11.80;8.10;;;;;;;1.58;78.75;96900.42;107716;1268;42002;-73
2022/04/11 05:03:45;;;;;;;13.30;8.10;;;;;;;1.60;78.84;96900.70;107653;1268;44720;-73
2022/04/11 05:06:16;;;;;;;10.50;7.40;;;;;;;1.60;78.69;96906.52;107637;1268;41839;-73
2022/04/11 05:08:47;;;;;;;10.00;6.90;;;;;;;1.60;78.72;96901.13;107675;1268;53788;-73
2022/04/11 05:11:20;;;;;;;12.30;6.60;;;;;;;1.63;78.81;96904.92;107751;1268;46692;-73
2022/04/11 05:13:52;;;;;;;11.10;7.10;;;;;;;1.64;78.86;96907.09;107834;1268;31359;-73
2022/04/11 05:16:23;;;;;;;12.30;8.20;;;;;;;1.64;78.67;96912.63;107793;1268;40838;-73
2022/04/11 05:18:54;;;;;;;14.50;8.30;;;;;;;1.63;79.11;96913.08;107808;1268;34648;-73
2022/04/11 05:21:31;;;;;;;12.70;8.20;;;;;;;1.65;79.05;96908.75;107804;1268;44775;-74
2022/04/11 05:24:05;;;;;;;11.90;8.40;;;;;;;1.69;79.03;96913.59;107710;1268;43577;-73
2022/04/11 05:26:36;;;;;;;10.50;6.50;;;;;;;1.73;78.95;96917.05;107699;1268;56808;-73
2022/04/11 05:29:07;;;;;;;10.30;6.30;;;;;;;1.75;78.97;96921.18;107641;1268;41106;-73
2022/04/11 05:31:38;;;;;;;12.80;7.50;;;;;;;1.74;78.86;96918.30;107752;1268;44623;-73
2022/04/11 05:34:09;;;;;;;13.90;6.80;;;;;;;1.72;78.99;96923.30;107750;1268;30796;-73
2022/04/11 05:36:40;;;;;;;6.90;4.40;;;;;;;1.72;79.31;96920.36;107742;1268;42770;-73
2022/04/11 05:39:11;;;;;;;12.90;7.00;;;;;;;1.70;79.35;96924.48;107799;1268;50861;-72
2022/04/11 05:41:42;;;;;;;8.40;5.40;;;;;;;1.65;79.79;96933.04;107717;1268;39919;-73
2022/04/11 05:44:12;;;;;;;8.50;6.20;;;;;;;1.59;80.39;96935.30;107736;1268;49844;-73
2022/04/11 05:46:45;;;;;;;8.70;5.30;;;;;;;1.56;80.68;96935.66;107785;1268;49126;-73
2022/04/11 05:49:16;;;;;;;10.10;6.80;;;;;;;1.56;81.19;96942.56;107766;1268;54135;-73
2022/04/11 05:51:47;;;;;;;8.50;5.80;;;;;;;1.53;81.56;96937.23;107746;1268;34709;-72
2022/04/11 05:54:18;;;;;;;7.80;4.80;;;;;;;1.48;81.59;96943.17;107785;1267;41716;-72
2022/04/11 05:56:49;;;;;;;13.40;6.20;;;;;;;1.44;81.94;96944.46;107764;1268;50304;-73
2022/04/11 05:59:19;;;;;;;12.40;8.50;;;;;;;1.45;82.29;96946.83;107730;1268;57404;-73
2022/04/11 06:01:51;;;;;;;14.50;9.60;;;;;;;1.50;82.04;96940.55;107782;1268;49991;-73
2022/04/11 06:04:24;;;;;;;14.30;9.00;;;;;;;1.61;82.16;96943.00;107940;1267;56941;-73
2022/04/11 06:06:56;;;;;;;13.10;10.10;;;;;;;1.71;81.86;96946.98;107855;1268;41561;-73
2022/04/11 06:09:27;;;;;;;12.70;10.80;;;;;;;1.98;81.71;96951.31;107905;1267;47917;-74
2022/04/11 06:11:58;;;;;;;13.20;9.80;;;;;;;2.56;81.72;96952.56;107754;1268;46799;-74
2022/04/11 06:14:29;;;;;;;14.50;8.80;;;;;;;2.74;80.52;96954.85;107979;1268;38992;-73
2022/04/11 06:17:01;;;;;;;17.90;6.60;;;;;;;2.51;79.98;96955.04;107938;1268;42174;-73
2022/04/11 06:19:32;;;;;;;11.20;6.90;;;;;;;2.25;79.79;96955.47;107832;1268;51362;-73
2022/04/11 06:22:03;;;;;;;9.30;5.40;;;;;;;2.07;80.07;96948.98;107889;1268;50974;-73
2022/04/11 06:24:34;;;;;;;15.30;6.70;;;;;;;2.05;80.04;96957.08;107789;1268;56644;-73
2022/04/11 06:27:05;;;;;;;15.00;8.10;;;;;;;2.15;79.83;96960.20;107744;1268;47626;-73
2022/04/11 06:29:36;;;;;;;13.40;8.80;;;;;;;2.16;79.65;96965.98;107715;1268;48366;-73
2022/04/11 06:32:08;;;;;;;12.20;8.90;;;;;;;2.18;79.58;96966.84;107802;1268;37716;-73
2022/04/11 06:34:40;;;;;;;15.40;11.90;;;;;;;2.19;79.47;96964.27;107821;1268;36641;-73
2022/04/11 06:37:11;;;;;;;15.60;12.30;;;;;;;2.27;79.24;96970.55;107777;1267;46216;-73
2022/04/11 06:39:42;;;;;;;13.10;10.10;;;;;;;2.36;79.08;96970.29;107782;1268;38738;-73
2022/04/11 06:42:13;;;;;;;14.70;10.80;;;;;;;2.49;78.61;96971.94;107728;1268;54105;-73
2022/04/11 06:44:44;;;;;;;11.10;9.70;;;;;;;3.13;77.86;96975.07;107835;1268;29455;-73
2022/04/11 06:47:17;;;;;;;13.30;11.80;;;;;;;3.11;76.06;96980.35;107819;1268;37646;-73
2022/04/11 06:49:49;;;;;;;17.80;14.60;;;;;;;2.98;75.88;96980.19;107749;1268;47363;-73
2022/04/11 06:52:20;;;;;;;15.40;13.20;;;;;;;3.17;75.46;96973.09;107819;1268;37934;-73
2022/04/11 06:54:50;;;;;;;11.40;8.40;;;;;;;3.16;74.91;96978.26;107775;1268;47600;-73
2022/04/11 06:57:22;;;;;;;13.60;11.90;;;;;;;3.26;74.44;96986.63;107793;1267;34773;-73
2022/04/11 06:59:53;;;;;;;15.90;14.00;;;;;;;3.27;74.04;96989.49;107831;1268;43250;-73
2022/04/11 07:02:24;;;;;;;15.20;12.30;;;;;;;4.20;75.71;96988.80;107807;1268;43194;-73
2022/04/11 07:04:55;;;;;;;10.70;9.20;;;;;;;4.80;72.33;96982.98;107808;1268;43227;-73
2022/04/11 07:07:25;;;;;;;10.50;7.10;;;;;;;4.87;70.39;96981.17;107790;1268;47647;-74
2022/04/11 07:09:58;;;;;;;11.20;6.80;;;;;;;6.35;68.24;96976.14;107801;1268;47163;-74
2022/04/11 07:12:29;;;;;;;13.80;9.20;;;;;;;6.27;64.49;96983.30;107709;1268;39726;-73
2022/04/11 07:15:04;;;;;;;9.90;7.30;;;;;;;5.85;65.95;96985.26;107815;1268;38345;-73
2022/04/11 07:17:36;;;;;;;7.90;6.00;;;;;;;5.34;64.64;96982.96;107832;1268;35151;-73
2022/04/11 07:20:09;;;;;;;11.30;9.30;;;;;;;5.04;66.44;96984.21;107757;1268;35417;-73
2022/04/11 07:22:40;;;;;;;10.60;7.50;;;;;;;7.23;65.62;96972.49;107883;1268;36564;-74
2022/04/11 07:25:11;;;;;;;7.70;6.50;;;;;;;8.88;61.60;96975.98;107769;1268;43983;-74
2022/04/11 07:27:42;;;;;;;7.80;6.00;;;;;;;9.95;57.32;96967.98;107852;1268;33347;-74
2022/04/11 07:30:14;;;;;;;7.40;6.10;;;;;;;9.40;55.03;96969.78;107820;1268;35105;-74
2022/04/11 07:32:45;;;;;;;10.90;6.60;;;;;;;8.72;54.75;96981.80;107768;1268;50533;-74
2022/04/11 07:35:16;;;;;;;10.20;7.30;;;;;;;9.09;55.18;96984.23;107747;1268;56294;-73
2022/04/11 07:37:47;;;;;;;10.00;6.20;;;;;;;9.31;54.80;96975.73;107803;1268;37892;-74
2022/04/11 07:40:18;;;;;;;6.70;4.50;;;;;;;10.60;54.53;96978.47;107777;1268;45523;-74
2022/04/11 07:42:51;;;;;;;8.60;4.50;;;;;;;11.54;50.27;96979.98;107755;1267;37166;-74
2022/04/11 07:45:23;;;;;;;5.80;4.10;;;;;;;11.75;49.49;96985.76;107940;1268;32702;-74
2022/04/11 07:47:54;;;;;;;6.60;4.00;;;;;;;12.89;49.94;96984.94;107760;1267;37521;-74
2022/04/11 07:50:25;;;;;;;8.10;4.30;;;;;;;13.57;46.52;96986.16;107784;1268;43980;-74
2022/04/11 07:52:56;;;;;;;5.60;3.50;;;;;;;13.89;46.18;96988.84;107805;1268;37209;-74
2022/04/11 07:55:27;;;;;;;6.50;4.00;;;;;;;11.82;44.52;96988.76;107818;1268;37786;-74
2022/04/11 07:57:59;;;;;;;7.40;3.80;;;;;;;10.25;46.80;96997.36;107741;1268;29894;-73
2022/04/11 08:00:31;;;;;;;8.20;3.60;;;;;;;8.29;47.39;96993.38;107801;1268;37402;-73
2022/04/11 08:03:02;;;;;;;8.40;4.30;;;;;;;6.67;51.00;97006.43;107734;1268;40257;-73
2022/04/11 08:05:34;;;;;;;6.40;3.80;;;;;;;5.63;53.08;97009.10;107758;1268;33069;-72
2022/04/11 08:08:05;;;;;;;7.50;6.80;;;;;;;5.36;55.36;97005.23;107779;1267;40320;-73
2022/04/11 08:10:37;;;;;;;6.40;4.90;;;;;;;6.72;53.63;96998.21;107778;1268;34469;-73
2022/04/11 08:13:08;;;;;;;8.30;4.70;;;;;;;8.80;51.37;96997.02;107774;1268;40168;-73
2022/04/11 08:15:39;;;;;;;8.60;4.70;;;;;;;10.68;49.80;96993.08;107842;1268;36383;-74
2022/04/11 08:18:10;;;;;;;6.40;4.20;;;;;;;12.67;49.67;96987.26;107788;1268;35264;-74
2022/04/11 08:20:41;;;;;;;6.90;4.00;;;;;;;14.33;45.08;96990.36;107692;1267;69732;-74
2022/04/11 08:23:12;;;;;;;7.20;4.00;;;;;;;15.00;42.56;96985.08;107731;1268;42200;-74
2022/04/11 08:25:43;;;;;;;5.50;3.60;;;;;;;15.76;43.47;96985.31;107778;1267;46799;-74
2022/04/11 08:28:13;;;;;;;6.00;3.90;;;;;;;16.42;39.80;96981.95;107715;1268;27249;-74
2022/04/11 08:30:44;;;;;;;5.70;3.10;;;;;;;16.66;40.04;96982.92;107783;1267;34227;-74
2022/04/11 08:33:16;;;;;;;6.20;3.30;;;;;;;15.90;34.63;96976.02;107730;1268;48486;-74
2022/04/11 08:35:47;;;;;;;5.50;3.70;;;;;;;14.00;35.93;96986.96;107782;1268;37024;-74
2022/04/11 08:38:18;;;;;;;6.90;3.60;;;;;;;12.35;38.92;96985.48;107773;1267;47673;-74
2022/04/11 08:40:50;;;;;;;4.70;2.60;;;;;;;12.45;39.10;96986.16;107752;1268;38894;-74
2022/04/11 08:43:24;;;;;;;5.40;2.20;;;;;;;11.15;38.35;96997.09;107766;1268;47873;-74
2022/04/11 08:45:59;;;;;;;5.90;2.60;;;;;;;9.08;41.00;96999.73;107848;1268;37106;-73
2022/04/11 08:48:30;;;;;;;13.30;3.30;;;;;;;9.18;42.08;96999.57;107817;1268;43388;-74
2022/04/11 08:51:01;;;;;;;5.60;2.90;;;;;;;9.84;42.71;96992.40;107761;1268;43846;-74
2022/04/11 08:53:33;;;;;;;5.80;3.10;;;;;;;9.04;42.42;96992.51;107803;1267;55400;-73
2022/04/11 08:56:04;;;;;;;7.90;4.70;;;;;;;7.56;44.78;96990.08;107803;1268;44087;-73
2022/04/11 08:58:35;;;;;;;4.10;2.80;;;;;;;6.62;46.73;97001.34;107713;1268;43564;-73
2022/04/11 09:01:05;;;;;;;6.30;3.10;;;;;;;6.02;47.92;96997.55;107768;1268;41546;-73
2022/04/11 09:03:36;;;;;;;3.40;1.90;;;;;;;5.45;48.85;97007.88;107731;1267;45519;-73
2022/04/11 09:06:10;;;;;;;3.60;1.80;;;;;;;6.20;49.33;96996.89;107746;1268;42468;-73
2022/04/11 09:08:51;;;;;;;3.90;2.50;;;;;;;6.95;47.13;96990.54;107715;1268;37640;-73
2022/04/11 09:11:34;;;;;;;4.70;1.60;;;;;;;6.53;47.53;96991.10;107767;1268;54728;-73
2022/04/11 09:14:08;;;;;;;2.60;0.90;;;;;;;5.98;48.13;96993.59;107806;1268;50634;-73
2022/04/11 09:16:51;;;;;;;3.40;1.70;;;;;;;5.44;49.03;96995.35;107765;1268;50854;-73
2022/04/11 09:19:24;;;;;;;4.70;2.30;;;;;;;5.56;50.41;96995.19;107847;1268;38947;-73
2022/04/11 09:21:55;;;;;;;5.10;1.80;;;;;;;6.37;49.80;96985.34;107742;1268;35433;-74
2022/04/11 09:24:29;;;;;;;4.40;2.00;;;;;;;6.22;48.19;96985.40;106212;1268;2177273;-74
2022/04/11 09:27:01;;;;;;;4.60;2.20;;;;;;;6.03;48.83;96986.98;107874;1268;31596;-73
2022/04/11 09:29:34;;;;;;;3.50;2.50;;;;;;;5.94;48.98;96984.42;107779;1268;38286;-73
2022/04/11 09:32:09;;;;;;;7.70;2.50;;;;;;;6.02;49.91;96985.93;107751;1268;44636;-74
2022/04/11 09:34:40;;;;;;;3.90;2.00;;;;;;;6.45;50.07;96981.20;107737;1268;42895;-73
2022/04/11 09:37:11;;;;;;;3.90;2.50;;;;;;;6.82;49.88;96984.68;107819;1267;39672;-73
2022/04/11 09:39:44;;;;;;;2.90;1.40;;;;;;;7.31;49.42;96980.98;107780;1267;40758;-73
2022/04/11 09:42:14;;;;;;;5.50;3.00;;;;;;;7.09;47.77;96982.38;107773;1268;30727;-73
2022/04/11 09:44:45;;;;;;;8.40;2.50;;;;;;;7.03;48.72;96979.52;107725;1268;49572;-73
2022/04/11 09:47:16;;;;;;;4.80;2.80;;;;;;;6.90;48.06;96975.98;107808;1267;48968;-73
2022/04/11 09:49:49;;;;;;;5.20;2.70;;;;;;;6.77;48.76;96975.08;107762;1268;54104;-73
2022/04/11 09:52:20;;;;;;;5.40;3.00;;;;;;;6.45;48.77;96973.55;107778;1268;47802;-73
2022/04/11 09:54:52;;;;;;;5.40;2.70;;;;;;;6.13;49.47;96975.00;107759;1268;56790;-73
2022/04/11 09:57:27;;;;;;;5.50;3.00;;;;;;;5.98;49.58;96983.23;107858;1268;33658;-73
2022/04/11 10:00:00;;;;;;;7.00;3.30;;;;;;;5.93;50.57;96985.09;107628;1268;109774;-73
2022/04/11 10:02:32;;;;;;;7.90;2.80;;;;;;;6.20;51.44;96976.30;107807;1268;41074;-73
2022/04/11 10:05:03;;;;;;;6.10;3.40;;;;;;;6.36;50.43;96984.03;107730;1268;37661;-73
2022/04/11 10:07:35;;;;;;;7.30;3.30;;;;;;;6.58;50.98;96977.67;107715;1268;45435;-73
2022/04/11 10:10:08;;;;;;;4.40;2.30;;;;;;;7.08;51.51;96977.51;107777;1267;42490;-73
2022/04/11 10:12:41;;;;;;;3.40;1.70;;;;;;;7.07;53.11;96981.14;107744;1268;41490;-73
2022/04/11 10:15:13;;;;;;;4.00;1.90;;;;;;;6.12;57.43;97006.64;107755;1268;55787;-73
2022/04/11 10:17:46;;;;;;;5.80;3.10;;;;;;;5.41;60.93;97004.45;107846;1265;35491;-73
2022/04/11 10:20:26;;;;;;;5.00;2.80;;;;;;;4.97;62.52;97004.38;107794;1266;53045;-73
2022/04/11 10:23:15;;;;;;;4.40;1.60;;;;;;;4.75;64.09;97002.62;107982;1267;34631;-73
2022/04/11 10:25:49;;;;;;;3.50;2.70;;;;;;;4.71;64.13;96993.73;107758;1268;41315;-73
2022/04/11 10:28:22;;;;;;;3.90;2.80;;;;;;;5.01;63.65;96999.98;107806;1267;57753;-73
2022/04/11 10:31:09;;;;;;;3.30;2.70;;;;;;;5.34;62.31;97001.11;107775;1267;46462;-73
2022/04/11 10:33:45;;;;;;;6.60;3.80;;;;;;;5.65;61.94;96996.65;107789;1268;43397;-74
2022/04/11 10:36:56;;;;;;;6.20;4.10;;;;;;;5.97;61.55;96990.73;107787;1267;36861;-74
2022/04/11 10:39:29;;;;;;;5.70;3.80;;;;;;;6.58;60.83;96978.11;107794;1267;54782;-74
2022/04/11 10:42:22;;;;;;;7.00;3.20;;;;;;;6.96;59.75;96967.77;107762;1267;39383;-74
2022/04/11 10:44:56;;;;;;;4.90;3.20;;;;;;;7.10;57.34;96965.41;107795;1268;42714;-74
2022/04/11 10:47:34;;;;;;;6.00;3.30;;;;;;;7.18;56.53;96965.14;107767;1267;53440;-74
2022/04/11 10:50:35;;;;;;;4.80;1.90;;;;;;;7.07;55.88;96971.91;107792;1268;44354;-74
2022/04/11 10:53:12;;;;;;;2.80;2.30;;;;;;;6.38;57.77;96989.78;107756;1268;43626;-73
2022/04/11 10:56:07;;;;;;;2.10;1.40;;;;;;;5.57;59.34;96999.40;107854;1267;43825;-74
2022/04/11 10:58:48;;;;;;;5.00;1.90;;;;;;;4.87;59.91;97001.13;107897;1268;35004;-73
2022/04/11 11:01:59;;;;;;;3.90;1.70;;;;;;;4.70;61.28;96997.84;107970;1267;39785;-73
2022/04/11 11:04:30;;;;;;;;;;;;;;;4.99;61.24;96993.64;107850;1268;34806;-73
2022/04/11 11:07:24;;;;;;;5.70;2.70;;;;;;;5.44;61.05;96985.73;107733;1268;43616;-73
2022/04/11 11:10:00;;;;;;;4.40;3.20;;;;;;;6.08;60.11;96979.45;107619;1269;36226;-74
2022/04/11 11:12:32;;;;;;;2.90;2.60;;;;;;;6.26;59.21;96968.98;107752;1268;35793;-74
2022/04/11 11:15:28;;;;;;;7.50;5.00;;;;;;;6.38;58.56;96961.10;107774;1267;38513;-73
2022/04/11 11:18:01;;;;;;;4.40;2.50;;;;;;;6.57;58.04;96951.54;107730;1268;44963;-74
2022/04/11 11:20:49;;;;;;;5.70;2.40;;;;;;;6.56;56.02;96952.68;107711;1268;42246;-74
2022/04/11 11:23:27;;;;;;;4.40;2.20;;;;;;;6.68;57.29;96952.20;107917;1267;47868;-74
2022/04/11 11:26:07;;;;;;;4.60;2.60;;;;;;;6.90;56.04;96947.77;107836;1267;51755;-75
2022/04/11 11:28:41;;;;;;;2.80;1.80;;;;;;;6.99;55.60;96943.73;107799;1268;44959;-74
2022/04/11 11:31:13;;;;;;;1.60;1.40;;;;;;;6.80;54.57;96940.88;107749;1267;38487;-74
2022/04/11 11:33:52;;;;;;;4.20;2.10;;;;;;;6.59;55.23;96941.71;107700;1267;47274;-74
2022/04/11 11:36:32;;;;;;;3.50;2.30;;;;;;;6.77;55.93;96935.77;107804;1267;45959;-73
2022/04/11 11:39:11;;;;;;;3.60;1.80;;;;;;;7.16;55.17;96936.10;107859;1267;32217;-74
2022/04/11 11:41:43;;;;;;;5.20;3.20;;;;;;;7.14;53.72;96929.13;107769;1268;44746;-74
2022/04/11 11:44:16;;;;;;;5.00;2.80;;;;;;;6.97;54.13;96937.06;107722;1268;35194;-74
2022/04/11 11:46:58;;;;;;;5.40;2.20;;;;;;;6.93;53.25;96945.34;107774;1267;44531;-74
2022/04/11 11:49:37;;;;;;;6.00;2.70;;;;;;;6.76;52.99;96938.60;107797;1267;50473;-74
2022/04/11 11:52:13;;;;;;;3.90;2.30;;;;;;;6.72;53.49;96937.35;107819;1268;45527;-74
2022/04/11 11:54:45;;;;;;;3.40;1.40;;;;;;;7.07;53.27;96934.01;107705;1268;54535;-74